createdAt,value
2023-01-19T00:00:14.151Z,21.40
2023-01-19T00:02:49.764Z,21.40
2023-01-19T00:05:26.260Z,21.40
2023-01-19T00:08:02.749Z,21.40
2023-01-19T00:10:36.105Z,21.30
2023-01-19T00:13:16.969Z,21.40
2023-01-19T00:15:47.085Z,21.30
2023-01-19T00:18:16.629Z,21.40
2023-01-19T00:20:48.606Z,21.40
2023-01-19T00:23:17.725Z,21.40
2023-01-19T00:25:51.014Z,21.50
2023-01-19T00:28:21.339Z,21.50
2023-01-19T00:30:51.721Z,21.50
2023-01-19T00:33:21.838Z,21.50
2023-01-19T00:36:02.025Z,21.50
2023-01-19T00:38:31.229Z,21.50
2023-01-19T00:41:03.232Z,21.50
2023-01-19T00:43:32.182Z,21.50
2023-01-19T00:46:01.679Z,21.50
2023-01-19T00:48:31.789Z,21.50
2023-01-19T00:51:01.258Z,21.50
2023-01-19T00:53:34.560Z,21.50
2023-01-19T00:56:03.657Z,21.50
2023-01-19T00:58:32.508Z,21.50
2023-01-19T01:01:04.198Z,21.50
2023-01-19T01:03:34.441Z,21.50
2023-01-19T01:06:04.344Z,21.60
2023-01-19T01:08:33.817Z,21.70
2023-01-19T01:11:03.203Z,21.70
2023-01-19T01:13:32.814Z,21.60
2023-01-19T01:16:02.549Z,21.60
2023-01-19T01:18:32.798Z,21.70
2023-01-19T01:21:06.476Z,21.70
2023-01-19T01:23:36.590Z,21.70
2023-01-19T01:26:06.360Z,21.60
2023-01-19T01:28:35.944Z,21.70
2023-01-19T01:31:04.845Z,21.70
2023-01-19T01:33:40.802Z,21.80
2023-01-19T01:36:12.248Z,21.80
2023-01-19T01:38:42.626Z,21.70
2023-01-19T01:41:13.547Z,21.70
2023-01-19T01:43:46.890Z,21.70
2023-01-19T01:46:17.679Z,21.80
2023-01-19T01:49:09.426Z,21.80
2023-01-19T01:51:48.296Z,21.80
2023-01-19T01:54:28.797Z,21.80
2023-01-19T01:57:00.819Z,21.90
2023-01-19T01:59:35.402Z,22.00
2023-01-19T02:02:26.167Z,22.00
2023-01-19T02:05:04.764Z,22.00
2023-01-19T02:08:18.628Z,21.90
2023-01-19T02:11:06.159Z,21.90
2023-01-19T02:13:40.199Z,22.00
2023-01-19T02:16:11.088Z,22.00
2023-01-19T02:18:40.340Z,22.00
2023-01-19T02:21:38.424Z,22.00
2023-01-19T02:24:08.152Z,22.00
2023-01-19T02:26:42.648Z,22.20
2023-01-19T02:29:14.546Z,22.50
2023-01-19T02:31:44.301Z,22.60
2023-01-19T02:34:18.113Z,22.60
2023-01-19T02:36:50.609Z,22.70
2023-01-19T02:39:21.511Z,22.80
2023-01-19T02:41:53.806Z,23.00
2023-01-19T02:44:23.392Z,23.00
2023-01-19T02:46:55.623Z,23.10
2023-01-19T02:49:30.072Z,23.20
2023-01-19T02:52:00.131Z,23.20
2023-01-19T02:54:41.483Z,23.30
2023-01-19T02:57:15.046Z,23.20
2023-01-19T02:59:56.193Z,23.30
2023-01-19T03:02:44.337Z,23.30
2023-01-19T03:05:35.315Z,23.30
2023-01-19T03:08:39.201Z,23.40
2023-01-19T03:11:13.491Z,23.40
2023-01-19T03:13:51.519Z,23.40
2023-01-19T03:16:30.340Z,23.40
2023-01-19T03:19:14.084Z,23.30
2023-01-19T03:21:46.982Z,23.40
2023-01-19T03:24:17.491Z,23.50
2023-01-19T03:26:53.982Z,23.50
2023-01-19T03:29:23.634Z,23.50
2023-01-19T03:31:52.521Z,23.50
2023-01-19T03:34:24.962Z,23.50
2023-01-19T03:36:55.198Z,23.50
2023-01-19T03:39:25.165Z,23.50
2023-01-19T03:41:59.937Z,23.60
2023-01-19T03:44:30.002Z,23.60
2023-01-19T03:47:00.220Z,23.60
2023-01-19T03:49:31.766Z,23.50
2023-01-19T03:52:01.284Z,23.50
2023-01-19T03:54:30.427Z,23.50
2023-01-19T03:56:59.787Z,23.50
2023-01-19T03:59:29.283Z,23.40
2023-01-19T04:01:58.721Z,23.40
2023-01-19T04:04:28.298Z,23.50
2023-01-19T04:06:58.834Z,23.60
2023-01-19T04:09:28.301Z,23.50
2023-01-19T04:11:58.294Z,23.50
2023-01-19T04:14:29.306Z,23.50
2023-01-19T04:17:00.038Z,23.60
2023-01-19T04:19:30.367Z,23.50
2023-01-19T04:21:59.444Z,23.50
2023-01-19T04:24:28.661Z,23.60
2023-01-19T04:26:59.887Z,23.60
2023-01-19T04:29:29.571Z,23.60
2023-01-19T04:31:58.502Z,23.60
2023-01-19T04:34:27.583Z,23.50
2023-01-19T04:36:58.329Z,23.50
2023-01-19T04:39:28.685Z,23.50
2023-01-19T04:42:01.917Z,23.50
2023-01-19T04:44:31.022Z,23.50
2023-01-19T04:47:00.564Z,23.50
2023-01-19T04:49:30.576Z,23.60
2023-01-19T04:52:00.119Z,23.50
2023-01-19T04:54:29.015Z,23.50
2023-01-19T04:56:58.861Z,23.50
2023-01-19T04:59:27.883Z,23.50
2023-01-19T05:01:57.608Z,23.50
2023-01-19T05:04:27.763Z,23.50
2023-01-19T05:06:58.983Z,23.50
2023-01-19T05:09:28.071Z,23.50
2023-01-19T05:11:57.057Z,23.50
2023-01-19T05:14:26.245Z,23.60
2023-01-19T05:16:55.568Z,23.60
2023-01-19T05:19:24.942Z,23.50
2023-01-19T05:21:55.285Z,23.50
2023-01-19T05:24:24.222Z,23.50
2023-01-19T05:26:53.434Z,23.50
2023-01-19T05:29:23.376Z,23.50
2023-01-19T05:31:52.298Z,23.60
2023-01-19T05:34:21.675Z,23.50
2023-01-19T05:36:51.677Z,23.50
2023-01-19T05:39:21.487Z,23.50
2023-01-19T05:41:50.562Z,23.50
2023-01-19T05:44:19.655Z,23.40
2023-01-19T05:46:49.889Z,23.40
2023-01-19T05:49:19.032Z,23.30
2023-01-19T05:51:48.273Z,23.30
2023-01-19T05:54:18.560Z,23.20
2023-01-19T05:56:49.065Z,23.20
2023-01-19T05:59:24.521Z,23.20
2023-01-19T06:01:54.497Z,23.20
2023-01-19T06:04:24.205Z,23.20
2023-01-19T06:06:54.243Z,23.10
2023-01-19T06:09:23.159Z,23.10
2023-01-19T06:11:55.418Z,23.00
2023-01-19T06:14:25.813Z,23.00
2023-01-19T06:16:54.865Z,23.00
2023-01-19T06:19:24.462Z,23.00
2023-01-19T06:21:54.343Z,23.00
2023-01-19T06:24:23.898Z,23.00
2023-01-19T06:26:52.831Z,23.00
2023-01-19T06:29:23.126Z,23.00
2023-01-19T06:31:52.592Z,23.00
2023-01-19T06:34:23.006Z,23.00
2023-01-19T06:36:53.315Z,23.00
2023-01-19T06:39:22.932Z,23.00
2023-01-19T06:41:52.539Z,23.00
2023-01-19T06:44:21.471Z,23.00
2023-01-19T06:46:50.819Z,23.00
2023-01-19T06:49:20.116Z,23.00
2023-01-19T06:51:49.198Z,22.90
2023-01-19T06:54:18.247Z,22.90
2023-01-19T06:56:47.911Z,22.90
2023-01-19T06:59:17.431Z,23.00
2023-01-19T07:01:46.465Z,23.00
2023-01-19T07:04:16.765Z,22.90
2023-01-19T07:06:46.132Z,22.90
2023-01-19T07:09:16.843Z,22.90
2023-01-19T07:11:46.672Z,22.90
2023-01-19T07:14:16.247Z,22.80
2023-01-19T07:16:45.662Z,22.90
2023-01-19T07:19:16.909Z,22.80
2023-01-19T07:21:46.225Z,22.80
2023-01-19T07:24:16.039Z,22.80
2023-01-19T07:26:45.682Z,22.80
2023-01-19T07:29:14.670Z,22.80
2023-01-19T07:31:44.210Z,22.70
2023-01-19T07:34:13.327Z,22.70
2023-01-19T07:36:43.046Z,22.70
2023-01-19T07:39:13.019Z,22.70
2023-01-19T07:41:42.566Z,22.70
2023-01-19T07:44:11.860Z,22.70
2023-01-19T07:46:41.256Z,22.70
2023-01-19T07:49:10.627Z,22.70
2023-01-19T07:51:39.992Z,22.70
2023-01-19T07:54:09.195Z,22.60
2023-01-19T07:56:38.011Z,22.60
2023-01-19T07:59:10.709Z,22.60
2023-01-19T08:01:40.539Z,22.60
2023-01-19T08:04:11.187Z,22.70
2023-01-19T08:06:40.577Z,22.80
2023-01-19T08:09:10.093Z,22.70
2023-01-19T08:11:39.371Z,22.70
2023-01-19T08:14:09.130Z,22.70
2023-01-19T08:16:38.333Z,22.70
2023-01-19T08:19:07.722Z,22.70
2023-01-19T08:21:39.885Z,22.70
2023-01-19T08:24:16.170Z,22.70
2023-01-19T08:26:45.202Z,22.60
2023-01-19T08:29:13.993Z,22.60
2023-01-19T08:31:43.500Z,22.70
2023-01-19T08:34:12.966Z,22.60
2023-01-19T08:36:42.575Z,22.60
2023-01-19T08:39:13.384Z,22.50
2023-01-19T08:41:43.235Z,22.50
2023-01-19T08:44:12.846Z,22.60
2023-01-19T08:46:41.964Z,22.60
2023-01-19T08:49:11.813Z,22.50
2023-01-19T08:51:41.111Z,22.60
2023-01-19T08:54:10.661Z,22.50
2023-01-19T08:56:39.609Z,22.50
2023-01-19T08:59:11.356Z,22.50
2023-01-19T09:01:42.110Z,22.50
2023-01-19T09:04:11.118Z,22.50
2023-01-19T09:06:40.387Z,22.50
2023-01-19T09:09:10.094Z,22.60
2023-01-19T09:11:39.109Z,22.50
2023-01-19T09:14:09.450Z,22.50
2023-01-19T09:16:38.968Z,22.50
2023-01-19T09:19:09.249Z,22.50
2023-01-19T09:21:38.735Z,22.50
2023-01-19T09:24:08.548Z,22.50
2023-01-19T09:26:38.376Z,22.50
2023-01-19T09:29:07.466Z,22.50
2023-01-19T09:31:36.789Z,22.50
2023-01-19T09:34:06.375Z,22.50
2023-01-19T09:36:37.247Z,22.50
2023-01-19T09:39:07.162Z,22.50
2023-01-19T09:41:36.805Z,22.50
2023-01-19T09:44:12.182Z,22.50
2023-01-19T09:46:42.805Z,22.50
2023-01-19T09:49:38.630Z,22.40
2023-01-19T09:52:11.287Z,22.40
2023-01-19T09:54:57.187Z,22.40
2023-01-19T09:57:28.018Z,22.40
2023-01-19T10:00:00.248Z,22.40
2023-01-19T10:02:35.671Z,22.40
2023-01-19T10:05:46.659Z,22.40
2023-01-19T10:08:19.496Z,22.40
2023-01-19T10:10:56.199Z,22.40
2023-01-19T10:13:56.483Z,22.40
2023-01-19T10:16:54.657Z,22.40
2023-01-19T10:19:50.996Z,22.40
2023-01-19T10:22:25.219Z,22.40
2023-01-19T10:24:58.210Z,22.30
2023-01-19T10:27:32.289Z,22.40
2023-01-19T10:30:02.279Z,22.40
2023-01-19T10:32:34.045Z,22.30
2023-01-19T10:35:03.689Z,22.40
2023-01-19T10:37:42.634Z,22.30
2023-01-19T10:40:11.939Z,22.40
2023-01-19T10:42:42.976Z,22.40
2023-01-19T10:45:23.965Z,22.40
2023-01-19T10:47:53.907Z,22.40
2023-01-19T10:50:29.567Z,22.30
2023-01-19T10:53:04.380Z,22.40
2023-01-19T10:55:36.762Z,22.30
2023-01-19T10:58:06.217Z,22.40
2023-01-19T11:00:45.041Z,22.30
2023-01-19T11:03:25.396Z,22.30
2023-01-19T11:05:58.300Z,22.30
2023-01-19T11:08:32.134Z,22.40
2023-01-19T11:11:05.072Z,22.40
2023-01-19T11:13:34.565Z,22.30
2023-01-19T11:16:30.840Z,22.30
2023-01-19T11:19:02.713Z,22.40
2023-01-19T11:21:32.369Z,22.40
2023-01-19T11:24:03.753Z,22.20
2023-01-19T11:26:50.106Z,22.00
2023-01-19T11:29:25.007Z,22.00
2023-01-19T11:31:55.346Z,22.20
2023-01-19T11:34:32.114Z,22.00
2023-01-19T11:37:03.598Z,22.00
2023-01-19T11:39:36.446Z,21.90
2023-01-19T11:42:05.827Z,21.80
2023-01-19T11:44:40.376Z,21.80
2023-01-19T11:47:57.866Z,21.80
2023-01-19T11:50:32.947Z,21.80
2023-01-19T11:53:07.230Z,21.70
2023-01-19T11:55:42.912Z,21.80
2023-01-19T11:58:19.531Z,21.80
2023-01-19T12:00:54.475Z,21.80
2023-01-19T12:03:42.595Z,21.80
2023-01-19T12:06:22.606Z,21.80
2023-01-19T12:09:13.371Z,21.90
2023-01-19T12:11:52.184Z,21.80
2023-01-19T12:14:25.417Z,21.80
2023-01-19T12:16:56.215Z,21.80
2023-01-19T12:19:55.162Z,21.80
2023-01-19T12:22:25.059Z,21.70
2023-01-19T12:25:15.758Z,21.80
2023-01-19T12:27:46.288Z,21.80
2023-01-19T12:30:24.583Z,21.80
2023-01-19T12:32:54.403Z,21.80
2023-01-19T12:36:15.328Z,21.80
2023-01-19T12:38:44.807Z,21.70
2023-01-19T12:41:33.651Z,21.70
2023-01-19T12:44:17.279Z,21.70
2023-01-19T12:47:05.059Z,21.70
2023-01-19T12:49:52.348Z,21.70
2023-01-19T12:52:24.068Z,21.70
2023-01-19T12:55:00.986Z,21.70
2023-01-19T12:57:52.007Z,21.70
2023-01-19T13:00:24.228Z,21.70
2023-01-19T13:03:02.865Z,21.60
2023-01-19T13:05:33.122Z,21.60
2023-01-19T13:08:12.481Z,21.70
2023-01-19T13:11:07.964Z,21.70
2023-01-19T13:13:43.230Z,21.60
2023-01-19T13:16:28.047Z,21.60
2023-01-19T13:19:08.545Z,21.60
2023-01-19T13:21:44.833Z,21.50
2023-01-19T13:24:23.476Z,21.50
2023-01-19T13:26:53.087Z,21.50
2023-01-19T13:29:31.612Z,21.60
2023-01-19T13:32:05.806Z,21.60
2023-01-19T13:34:58.955Z,21.50
2023-01-19T13:37:40.360Z,21.50
2023-01-19T13:40:17.499Z,21.50
2023-01-19T13:42:46.708Z,21.50
2023-01-19T13:45:37.681Z,21.60
2023-01-19T13:48:10.537Z,21.50
2023-01-19T13:50:44.006Z,21.50
2023-01-19T13:53:21.724Z,21.50
2023-01-19T13:56:17.066Z,21.50
2023-01-19T13:59:15.575Z,21.50
2023-01-19T14:01:57.163Z,21.50
2023-01-19T14:04:36.058Z,21.50
2023-01-19T14:07:14.429Z,21.50
2023-01-19T14:09:43.427Z,21.50
2023-01-19T14:12:15.279Z,21.50
2023-01-19T14:14:47.870Z,21.50
2023-01-19T14:17:31.143Z,21.50
2023-01-19T14:20:03.570Z,21.50
2023-01-19T14:22:51.184Z,21.50
2023-01-19T14:25:35.610Z,21.50
2023-01-19T14:28:46.231Z,21.40
2023-01-19T14:31:26.056Z,21.40
2023-01-19T14:33:58.599Z,21.40
2023-01-19T14:36:39.860Z,21.40
2023-01-19T14:39:17.413Z,21.50
2023-01-19T14:41:53.304Z,21.40
2023-01-19T14:44:40.184Z,21.50
2023-01-19T14:47:37.004Z,21.30
2023-01-19T14:50:18.707Z,21.30
2023-01-19T14:52:59.181Z,21.50
2023-01-19T14:55:49.229Z,21.40
2023-01-19T14:58:21.227Z,21.40
2023-01-19T15:00:50.838Z,21.40
2023-01-19T15:03:19.785Z,21.40
2023-01-19T15:06:09.935Z,21.30
2023-01-19T15:08:40.324Z,21.30
2023-01-19T15:11:16.659Z,21.30
2023-01-19T15:13:46.393Z,21.40
2023-01-19T15:16:15.511Z,21.40
2023-01-19T15:18:46.156Z,21.40
2023-01-19T15:21:20.689Z,21.30
2023-01-19T15:23:49.823Z,21.30
2023-01-19T15:26:19.876Z,21.40
2023-01-19T15:28:51.704Z,21.30
2023-01-19T15:31:33.102Z,21.30
2023-01-19T15:34:02.795Z,21.40
2023-01-19T15:36:39.531Z,21.30
2023-01-19T15:39:11.914Z,21.30
2023-01-19T15:41:41.634Z,21.30
2023-01-19T15:44:11.375Z,21.30
2023-01-19T15:46:40.985Z,21.20
2023-01-19T15:49:10.471Z,21.20
2023-01-19T15:51:39.713Z,21.20
2023-01-19T15:54:14.170Z,21.30
2023-01-19T15:56:43.398Z,21.30
2023-01-19T15:59:12.249Z,21.20
2023-01-19T16:01:41.432Z,21.20
2023-01-19T16:04:12.420Z,21.20
2023-01-19T16:06:42.387Z,21.20
2023-01-19T16:09:15.111Z,21.30
2023-01-19T16:11:44.647Z,21.20
2023-01-19T16:14:14.435Z,21.10
2023-01-19T16:16:46.703Z,21.20
2023-01-19T16:19:19.487Z,21.10
2023-01-19T16:21:48.587Z,21.20
2023-01-19T16:24:17.945Z,21.10
2023-01-19T16:26:50.712Z,21.10
2023-01-19T16:29:20.352Z,21.10
2023-01-19T16:31:49.806Z,21.20
2023-01-19T16:34:19.249Z,21.10
2023-01-19T16:36:48.119Z,21.10
2023-01-19T16:39:20.248Z,21.10
2023-01-19T16:41:49.334Z,21.10
2023-01-19T16:44:22.037Z,21.10
2023-01-19T16:46:51.275Z,21.10
2023-01-19T16:49:22.983Z,21.10
2023-01-19T16:51:52.779Z,21.00
2023-01-19T16:54:24.294Z,21.10
2023-01-19T16:56:57.787Z,21.20
2023-01-19T16:59:27.837Z,21.10
2023-01-19T17:01:58.056Z,21.10
2023-01-19T17:04:27.884Z,21.10
2023-01-19T17:06:56.839Z,21.20
2023-01-19T17:09:26.291Z,21.20
2023-01-19T17:11:55.706Z,21.10
2023-01-19T17:14:25.118Z,21.10
2023-01-19T17:16:54.875Z,21.10
2023-01-19T17:19:24.172Z,21.10
2023-01-19T17:21:53.080Z,21.10
2023-01-19T17:24:22.185Z,21.10
2023-01-19T17:26:51.593Z,21.10
2023-01-19T17:29:22.169Z,21.10
2023-01-19T17:31:52.080Z,21.00
2023-01-19T17:34:21.033Z,21.00
2023-01-19T17:36:52.416Z,21.00
2023-01-19T17:39:22.064Z,21.00
2023-01-19T17:41:51.433Z,21.00
2023-01-19T17:44:20.857Z,21.00
2023-01-19T17:46:50.420Z,21.00
2023-01-19T17:49:19.427Z,21.00
2023-01-19T17:51:53.051Z,21.00
2023-01-19T17:54:22.253Z,21.00
2023-01-19T17:56:51.657Z,21.00
2023-01-19T17:59:20.961Z,21.00
2023-01-19T18:01:50.136Z,21.00
2023-01-19T18:04:19.471Z,21.00
2023-01-19T18:06:49.708Z,21.00
2023-01-19T18:09:18.984Z,21.00
2023-01-19T18:11:47.829Z,21.00
2023-01-19T18:14:18.303Z,21.00
2023-01-19T18:16:47.733Z,21.00
2023-01-19T18:19:17.059Z,21.00
2023-01-19T18:21:47.064Z,21.10
2023-01-19T18:24:15.883Z,21.00
2023-01-19T18:26:45.223Z,21.00
2023-01-19T18:29:14.774Z,21.00
2023-01-19T18:31:43.916Z,21.00
2023-01-19T18:34:12.855Z,21.00
2023-01-19T18:36:43.539Z,21.00
2023-01-19T18:39:12.732Z,21.00
2023-01-19T18:41:43.360Z,21.00
2023-01-19T18:44:12.860Z,21.00
2023-01-19T18:46:42.862Z,21.00
2023-01-19T18:49:21.271Z,21.00
2023-01-19T18:51:50.505Z,20.90
2023-01-19T18:54:20.343Z,20.90
2023-01-19T18:56:51.657Z,20.90
2023-01-19T18:59:23.090Z,20.80
2023-01-19T19:01:52.394Z,20.90
2023-01-19T19:04:21.783Z,20.90
2023-01-19T19:06:51.577Z,20.90
2023-01-19T19:09:22.874Z,21.00
2023-01-19T19:11:52.560Z,21.00
2023-01-19T19:14:22.106Z,21.00
2023-01-19T19:16:51.698Z,20.90
2023-01-19T19:19:21.494Z,21.00
2023-01-19T19:21:52.793Z,20.90
2023-01-19T19:24:22.277Z,20.90
2023-01-19T19:26:51.468Z,20.90
2023-01-19T19:29:20.765Z,20.90
2023-01-19T19:31:50.418Z,20.90
2023-01-19T19:34:19.527Z,21.00
2023-01-19T19:36:49.193Z,20.90
2023-01-19T19:39:18.649Z,21.00
2023-01-19T19:41:47.545Z,20.90
2023-01-19T19:44:19.391Z,20.90
2023-01-19T19:46:48.563Z,20.90
2023-01-19T19:49:22.345Z,20.90
2023-01-19T19:51:51.439Z,20.90
2023-01-19T19:54:20.593Z,20.90
2023-01-19T19:56:53.067Z,20.80
2023-01-19T19:59:22.183Z,21.00
2023-01-19T20:01:53.467Z,20.90
2023-01-19T20:04:26.351Z,20.80
2023-01-19T20:06:55.724Z,20.80
2023-01-19T20:09:27.815Z,20.90
2023-01-19T20:11:56.983Z,20.80
2023-01-19T20:14:25.895Z,20.90
2023-01-19T20:16:55.129Z,20.80
2023-01-19T20:19:24.183Z,20.90
2023-01-19T20:21:53.270Z,20.90
2023-01-19T20:24:22.119Z,20.90
2023-01-19T20:26:53.293Z,20.80
2023-01-19T20:29:28.826Z,20.90
2023-01-19T20:31:59.866Z,20.90
2023-01-19T20:34:32.967Z,20.90
2023-01-19T20:37:02.931Z,20.90
2023-01-19T20:39:34.426Z,20.90
2023-01-19T20:42:09.814Z,20.80
2023-01-19T20:44:38.957Z,20.90
2023-01-19T20:47:09.557Z,20.80
2023-01-19T20:49:42.071Z,20.80
2023-01-19T20:52:11.552Z,20.80
2023-01-19T20:54:40.628Z,20.90
2023-01-19T20:57:10.745Z,20.90
2023-01-19T20:59:41.553Z,20.80
2023-01-19T21:02:15.410Z,20.80
2023-01-19T21:04:44.781Z,20.90
2023-01-19T21:07:13.589Z,20.80
2023-01-19T21:09:46.383Z,20.70
2023-01-19T21:12:18.612Z,20.80
2023-01-19T21:14:47.986Z,20.70
2023-01-19T21:17:16.831Z,20.80
2023-01-19T21:19:46.417Z,20.80
2023-01-19T21:22:15.920Z,20.80
2023-01-19T21:24:46.733Z,20.80
2023-01-19T21:27:16.483Z,20.80
2023-01-19T21:29:48.243Z,20.80
2023-01-19T21:32:17.839Z,20.80
2023-01-19T21:34:47.256Z,20.80
2023-01-19T21:37:16.255Z,20.80
2023-01-19T21:39:45.687Z,20.80
2023-01-19T21:42:14.683Z,20.70
2023-01-19T21:44:44.080Z,20.70
2023-01-19T21:47:15.095Z,20.80
2023-01-19T21:49:45.241Z,20.80
2023-01-19T21:52:14.214Z,20.70
2023-01-19T21:54:43.426Z,20.70
2023-01-19T21:57:16.321Z,20.70
2023-01-19T21:59:46.570Z,20.70
2023-01-19T22:02:29.977Z,20.80
2023-01-19T22:05:07.642Z,20.80
2023-01-19T22:07:37.114Z,20.70
2023-01-19T22:10:06.680Z,20.70
2023-01-19T22:12:35.579Z,20.70
2023-01-19T22:15:04.791Z,20.70
2023-01-19T22:17:40.209Z,20.80
2023-01-19T22:20:10.239Z,20.70
2023-01-19T22:22:42.789Z,20.80
2023-01-19T22:25:12.611Z,20.80
2023-01-19T22:27:42.155Z,20.80
2023-01-19T22:30:11.990Z,20.80
2023-01-19T22:32:41.464Z,20.70
2023-01-19T22:35:11.294Z,20.70
2023-01-19T22:37:40.746Z,20.70
2023-01-19T22:40:13.786Z,20.80
2023-01-19T22:42:49.522Z,20.70
2023-01-19T22:45:18.724Z,20.70
2023-01-19T22:47:48.217Z,20.80
2023-01-19T22:50:17.644Z,20.70
2023-01-19T22:52:46.552Z,20.70
2023-01-19T22:55:16.067Z,20.70
2023-01-19T22:57:45.214Z,20.70
2023-01-19T23:00:14.799Z,20.70
2023-01-19T23:02:43.917Z,20.70
2023-01-19T23:05:13.463Z,20.70
2023-01-19T23:07:43.272Z,20.70
2023-01-19T23:10:14.198Z,20.70
2023-01-19T23:12:43.740Z,20.70
2023-01-19T23:15:13.008Z,20.80
2023-01-19T23:17:49.434Z,20.70
2023-01-19T23:20:18.583Z,20.60
2023-01-19T23:22:50.905Z,20.60
2023-01-19T23:25:20.427Z,20.60
2023-01-19T23:27:49.479Z,20.60
2023-01-19T23:30:29.552Z,20.60
2023-01-19T23:32:58.776Z,20.60
2023-01-19T23:35:27.727Z,20.60
2023-01-19T23:37:58.437Z,20.60
2023-01-19T23:40:27.829Z,20.60
2023-01-19T23:42:57.439Z,20.60
2023-01-19T23:45:26.472Z,20.60
2023-01-19T23:48:01.410Z,20.60
2023-01-19T23:50:31.126Z,20.60
2023-01-19T23:53:00.745Z,20.70
2023-01-19T23:55:29.872Z,20.70
2023-01-19T23:58:03.305Z,20.70
